sensor_id;sensor_type;location;lat;lon;timestamp;pressure;altitude;pressure_sealevel;temperature;humidity
14242;BME280;7205;50.864;12.766;2023-04-01T00:04:17;95895.72;;;10.25;93.35
14242;BME280;7205;50.864;12.766;2023-04-01T00:06:44;95905.19;;;10.33;93.18
14242;BME280;7205;50.864;12.766;2023-04-01T00:09:13;95898.13;;;10.27;93.22
14242;BME280;7205;50.864;12.766;2023-04-01T00:11:40;95899.97;;;10.26;92.60
14242;BME280;7205;50.864;12.766;2023-04-01T00:14:10;95899.09;;;10.32;93.61
14242;BME280;7205;50.864;12.766;2023-04-01T00:16:40;95902.94;;;10.36;93.52
14242;BME280;7205;50.864;12.766;2023-04-01T00:19:33;95895.81;;;10.37;93.16
14242;BME280;7205;50.864;12.766;2023-04-01T00:24:43;95895.97;;;10.42;93.27
14242;BME280;7205;50.864;12.766;2023-04-01T00:27:10;95905.34;;;10.38;93.33
14242;BME280;7205;50.864;12.766;2023-04-01T00:32:18;95895.78;;;10.43;93.05
14242;BME280;7205;50.864;12.766;2023-04-01T00:34:50;95897.59;;;10.43;91.90
14242;BME280;7205;50.864;12.766;2023-04-01T00:37:27;95894.16;;;10.42;92.02
14242;BME280;7205;50.864;12.766;2023-04-01T00:40:38;95900.41;;;10.48;92.33
14242;BME280;7205;50.864;12.766;2023-04-01T00:43:46;95898.34;;;10.50;91.68
14242;BME280;7205;50.864;12.766;2023-04-01T00:46:24;95904.63;;;10.49;91.36
14242;BME280;7205;50.864;12.766;2023-04-01T00:48:54;95894.75;;;10.44;91.53
14242;BME280;7205;50.864;12.766;2023-04-01T00:51:25;95901.78;;;10.50;91.38
14242;BME280;7205;50.864;12.766;2023-04-01T00:53:55;95901.78;;;10.50;91.14
14242;BME280;7205;50.864;12.766;2023-04-01T00:56:25;95892.25;;;10.49;90.74
14242;BME280;7205;50.864;12.766;2023-04-01T00:58:58;95895.50;;;10.51;90.95
14242;BME280;7205;50.864;12.766;2023-04-01T01:01:28;95891.22;;;10.50;91.07
14242;BME280;7205;50.864;12.766;2023-04-01T01:03:56;95893.44;;;10.53;90.43
14242;BME280;7205;50.864;12.766;2023-04-01T01:06:33;95886.53;;;10.52;90.21
14242;BME280;7205;50.864;12.766;2023-04-01T01:09:18;95883.31;;;10.50;90.27
14242;BME280;7205;50.864;12.766;2023-04-01T01:11:54;95893.44;;;10.53;89.96
14242;BME280;7205;50.864;12.766;2023-04-01T01:14:36;95887.97;;;10.55;90.38
14242;BME280;7205;50.864;12.766;2023-04-01T01:17:13;95893.22;;;10.55;89.57
14242;BME280;7205;50.864;12.766;2023-04-01T01:23:29;95890.81;;;10.53;89.58
14242;BME280;7205;50.864;12.766;2023-04-01T01:26:14;95892.19;;;10.56;89.72
14242;BME280;7205;50.864;12.766;2023-04-01T01:28:59;95892.41;;;10.54;89.16
14242;BME280;7205;50.864;12.766;2023-04-01T01:31:34;95888.75;;;10.55;89.23
14242;BME280;7205;50.864;12.766;2023-04-01T01:34:11;95882.69;;;10.55;89.03
14242;BME280;7205;50.864;12.766;2023-04-01T01:36:45;95890.75;;;10.60;89.04
14242;BME280;7205;50.864;12.766;2023-04-01T01:39:16;95886.25;;;10.60;88.54
14242;BME280;7205;50.864;12.766;2023-04-01T01:41:46;95889.94;;;10.59;88.71
14242;BME280;7205;50.864;12.766;2023-04-01T01:44:16;95886.25;;;10.60;88.67
14242;BME280;7205;50.864;12.766;2023-04-01T01:46:45;95889.72;;;10.61;88.63
14242;BME280;7205;50.864;12.766;2023-04-01T01:49:14;95892.34;;;10.61;88.38
14242;BME280;7205;50.864;12.766;2023-04-01T01:51:43;95894.75;;;10.62;88.48
14242;BME280;7205;50.864;12.766;2023-04-01T01:54:14;95887.06;;;10.61;88.03
14242;BME280;7205;50.864;12.766;2023-04-01T01:56:43;95895.81;;;10.61;87.78
14242;BME280;7205;50.864;12.766;2023-04-01T01:59:11;95875.16;;;10.52;87.81
14242;BME280;7205;50.864;12.766;2023-04-01T02:01:42;95890.16;;;10.58;87.44
14242;BME280;7205;50.864;12.766;2023-04-01T02:04:13;95891.81;;;10.52;87.83
14242;BME280;7205;50.864;12.766;2023-04-01T02:06:47;95881.47;;;10.51;87.78
14242;BME280;7205;50.864;12.766;2023-04-01T02:09:20;95897.47;;;10.56;87.84
14242;BME280;7205;50.864;12.766;2023-04-01T02:11:49;95884.72;;;10.53;87.99
14242;BME280;7205;50.864;12.766;2023-04-01T02:14:19;95877.63;;;10.53;87.77
14242;BME280;7205;50.864;12.766;2023-04-01T02:16:51;95882.75;;;10.48;87.40
14242;BME280;7205;50.864;12.766;2023-04-01T02:19:21;95889.78;;;10.54;87.38
14242;BME280;7205;50.864;12.766;2023-04-01T02:21:55;95888.19;;;10.53;87.35
14242;BME280;7205;50.864;12.766;2023-04-01T02:24:27;95882.31;;;10.51;86.76
14242;BME280;7205;50.864;12.766;2023-04-01T02:26:55;95890.59;;;10.55;87.32
14242;BME280;7205;50.864;12.766;2023-04-01T02:29:29;95886.09;;;10.55;87.68
14242;BME280;7205;50.864;12.766;2023-04-01T02:31:58;95873.94;;;10.54;86.98
14242;BME280;7205;50.864;12.766;2023-04-01T02:34:30;95883.25;;;10.57;86.49
14242;BME280;7205;50.864;12.766;2023-04-01T02:36:58;95875.78;;;10.54;86.86
14242;BME280;7205;50.864;12.766;2023-04-01T02:39:33;95882.91;;;10.53;85.89
14242;BME280;7205;50.864;12.766;2023-04-01T02:42:00;95891.16;;;10.57;86.09
14242;BME280;7205;50.864;12.766;2023-04-01T02:44:28;95887.97;;;10.55;85.55
14242;BME280;7205;50.864;12.766;2023-04-01T02:46:55;95888.53;;;10.57;85.55
14242;BME280;7205;50.864;12.766;2023-04-01T02:49:22;95905.97;;;10.58;84.55
14242;BME280;7205;50.864;12.766;2023-04-01T02:51:49;95892.41;;;10.54;84.99
14242;BME280;7205;50.864;12.766;2023-04-01T02:54:17;95892.41;;;10.54;84.82
14242;BME280;7205;50.864;12.766;2023-04-01T02:56:45;95894.25;;;10.54;84.82
14242;BME280;7205;50.864;12.766;2023-04-01T02:59:12;95887.97;;;10.55;84.45
14242;BME280;7205;50.864;12.766;2023-04-01T03:01:39;95894.03;;;10.55;84.29
14242;BME280;7205;50.864;12.766;2023-04-01T03:04:06;95893.00;;;10.56;83.84
14242;BME280;7205;50.864;12.766;2023-04-01T03:06:33;95895.88;;;10.55;83.19
14242;BME280;7205;50.864;12.766;2023-04-01T03:09:00;95885.88;;;10.57;84.06
14242;BME280;7205;50.864;12.766;2023-04-01T03:11:27;95899.06;;;10.57;83.50
14242;BME280;7205;50.864;12.766;2023-04-01T03:13:55;95900.72;;;10.58;83.24
14242;BME280;7205;50.864;12.766;2023-04-01T03:16:22;95902.53;;;10.57;83.19
14242;BME280;7205;50.864;12.766;2023-04-01T03:18:50;95900.72;;;10.58;83.33
14242;BME280;7205;50.864;12.766;2023-04-01T03:21:20;95904.16;;;10.58;83.29
14242;BME280;7205;50.864;12.766;2023-04-01T03:23:47;95901.53;;;10.58;83.55
14242;BME280;7205;50.864;12.766;2023-04-01T03:26:14;95892.19;;;10.56;83.87
14242;BME280;7205;50.864;12.766;2023-04-01T03:28:42;95892.41;;;10.54;83.51
14242;BME280;7205;50.864;12.766;2023-04-01T03:31:10;95892.41;;;10.54;83.26
14242;BME280;7205;50.864;12.766;2023-04-01T03:33:43;95893.63;;;10.52;83.25
14242;BME280;7205;50.864;12.766;2023-04-01T03:36:10;95898.13;;;10.51;83.91
14242;BME280;7205;50.864;12.766;2023-04-01T03:38:38;95899.13;;;10.50;83.67
14242;BME280;7205;50.864;12.766;2023-04-01T03:41:05;95906.06;;;10.51;83.32
14242;BME280;7205;50.864;12.766;2023-04-01T03:43:32;95895.50;;;10.51;83.67
14242;BME280;7205;50.864;12.766;2023-04-01T03:45:59;95899.97;;;10.51;83.89
14242;BME280;7205;50.864;12.766;2023-04-01T03:48:27;95904.41;;;10.50;83.41
14242;BME280;7205;50.864;12.766;2023-04-01T03:50:54;95907.06;;;10.50;83.56
14242;BME280;7205;50.864;12.766;2023-04-01T03:53:22;95908.09;;;10.49;83.15
14242;BME280;7205;50.864;12.766;2023-04-01T03:55:49;95910.94;;;10.48;83.11
14242;BME280;7205;50.864;12.766;2023-04-01T03:58:17;95913.38;;;10.49;83.49
14242;BME280;7205;50.864;12.766;2023-04-01T04:00:44;95907.50;;;10.47;83.38
14242;BME280;7205;50.864;12.766;2023-04-01T04:03:11;95910.34;;;10.46;83.90
14242;BME280;7205;50.864;12.766;2023-04-01T04:05:46;95911.59;;;10.43;83.80
14242;BME280;7205;50.864;12.766;2023-04-01T04:08:14;95909.38;;;10.40;83.59
14242;BME280;7205;50.864;12.766;2023-04-01T04:10:41;95906.19;;;10.38;84.04
14242;BME280;7205;50.864;12.766;2023-04-01T04:13:08;95916.72;;;10.38;83.82
14242;BME280;7205;50.864;12.766;2023-04-01T04:15:40;95914.88;;;10.39;84.38
14242;BME280;7205;50.864;12.766;2023-04-01T04:18:06;95920.75;;;10.41;83.98
14242;BME280;7205;50.864;12.766;2023-04-01T04:20:33;95913.88;;;10.40;84.58
14242;BME280;7205;50.864;12.766;2023-04-01T04:23:02;95920.97;;;10.39;84.66
14242;BME280;7205;50.864;12.766;2023-04-01T04:25:30;95917.50;;;10.39;84.77
14242;BME280;7205;50.864;12.766;2023-04-01T04:27:57;95924.66;;;10.38;84.54
14242;BME280;7205;50.864;12.766;2023-04-01T04:30:24;95922.78;;;10.39;84.35
14242;BME280;7205;50.864;12.766;2023-04-01T04:32:51;95926.25;;;10.39;84.83
14242;BME280;7205;50.864;12.766;2023-04-01T04:35:17;95925.22;;;10.40;84.54
14242;BME280;7205;50.864;12.766;2023-04-01T04:37:45;95925.22;;;10.40;84.73
14242;BME280;7205;50.864;12.766;2023-04-01T04:40:14;95926.03;;;10.41;84.24
14242;BME280;7205;50.864;12.766;2023-04-01T04:42:41;95926.25;;;10.39;84.26
14242;BME280;7205;50.864;12.766;2023-04-01T04:45:11;95934.38;;;10.38;84.44
14242;BME280;7205;50.864;12.766;2023-04-01T04:47:44;95932.75;;;10.37;84.25
14242;BME280;7205;50.864;12.766;2023-04-01T04:50:11;95939.66;;;10.38;84.19
14242;BME280;7205;50.864;12.766;2023-04-01T04:52:39;95937.00;;;10.38;84.33
14242;BME280;7205;50.864;12.766;2023-04-01T04:55:07;95939.66;;;10.38;84.56
14242;BME280;7205;50.864;12.766;2023-04-01T04:57:35;95935.59;;;10.35;83.57
14242;BME280;7205;50.864;12.766;2023-04-01T05:00:03;95940.88;;;10.35;83.75
14242;BME280;7205;50.864;12.766;2023-04-01T05:02:54;95935.03;;;10.33;83.40
14242;BME280;7205;50.864;12.766;2023-04-01T05:05:21;95939.50;;;10.33;83.72
14242;BME280;7205;50.864;12.766;2023-04-01T05:07:48;95943.50;;;10.35;83.00
14242;BME280;7205;50.864;12.766;2023-04-01T05:10:15;95934.81;;;10.35;83.29
14242;BME280;7205;50.864;12.766;2023-04-01T05:12:43;95931.13;;;10.36;83.56
14242;BME280;7205;50.864;12.766;2023-04-01T05:15:15;95938.63;;;10.39;83.42
14242;BME280;7205;50.864;12.766;2023-04-01T05:17:42;95951.59;;;10.40;82.87
14242;BME280;7205;50.864;12.766;2023-04-01T05:20:12;95935.34;;;10.43;83.74
14242;BME280;7205;50.864;12.766;2023-04-01T05:22:39;95942.84;;;10.46;83.56
14242;BME280;7205;50.864;12.766;2023-04-01T05:25:07;95952.13;;;10.49;83.47
14242;BME280;7205;50.864;12.766;2023-04-01T05:27:34;95937.72;;;10.51;83.88
14242;BME280;7205;50.864;12.766;2023-04-01T05:30:05;95943.38;;;10.55;83.46
14242;BME280;7205;50.864;12.766;2023-04-01T05:32:41;95950.03;;;10.57;83.40
14242;BME280;7205;50.864;12.766;2023-04-01T05:35:09;95941.09;;;10.58;83.09
14242;BME280;7205;50.864;12.766;2023-04-01T05:37:36;95941.66;;;10.60;82.92
14242;BME280;7205;50.864;12.766;2023-04-01T05:40:05;95945.94;;;10.61;82.71
14242;BME280;7205;50.864;12.766;2023-04-01T05:42:32;95942.88;;;10.64;82.75
14242;BME280;7205;50.864;12.766;2023-04-01T05:44:58;95951.38;;;10.66;82.56
14242;BME280;7205;50.864;12.766;2023-04-01T05:47:52;95951.97;;;10.68;81.94
14242;BME280;7205;50.864;12.766;2023-04-01T05:50:19;95957.03;;;10.70;81.79
14242;BME280;7205;50.864;12.766;2023-04-01T05:52:46;95953.13;;;10.72;81.18
14242;BME280;7205;50.864;12.766;2023-04-01T05:55:13;95956.38;;;10.74;81.00
14242;BME280;7205;50.864;12.766;2023-04-01T05:57:40;95956.53;;;10.79;81.29
14242;BME280;7205;50.864;12.766;2023-04-01T06:00:07;95961.38;;;10.82;80.41
14242;BME280;7205;50.864;12.766;2023-04-01T06:02:40;95963.56;;;10.85;80.02
14242;BME280;7205;50.864;12.766;2023-04-01T06:05:15;95959.91;;;10.86;80.23
14242;BME280;7205;50.864;12.766;2023-04-01T06:07:43;95955.25;;;10.88;79.59
14242;BME280;7205;50.864;12.766;2023-04-01T06:10:13;95956.63;;;10.91;79.37
14242;BME280;7205;50.864;12.766;2023-04-01T06:12:53;95961.22;;;10.95;79.19
14242;BME280;7205;50.864;12.766;2023-04-01T06:15:30;95960.00;;;10.98;78.61
14242;BME280;7205;50.864;12.766;2023-04-01T06:24:16;95968.00;;;11.09;77.62
14242;BME280;7205;50.864;12.766;2023-04-01T06:26:54;95969.75;;;11.15;77.74
14242;BME280;7205;50.864;12.766;2023-04-01T06:29:39;95962.34;;;11.24;77.61
14242;BME280;7205;50.864;12.766;2023-04-01T06:35:28;95969.13;;;11.38;76.58
14242;BME280;7205;50.864;12.766;2023-04-01T06:38:20;95971.09;;;11.43;75.89
14242;BME280;7205;50.864;12.766;2023-04-01T06:41:23;95970.63;;;11.46;75.54
14242;BME280;7205;50.864;12.766;2023-04-01T06:43:59;95968.94;;;11.51;75.84
14242;BME280;7205;50.864;12.766;2023-04-01T06:47:20;95982.53;;;11.55;75.21
14242;BME280;7205;50.864;12.766;2023-04-01T06:50:24;95971.72;;;11.56;75.31
14242;BME280;7205;50.864;12.766;2023-04-01T06:53:19;95980.47;;;11.57;75.04
14242;BME280;7205;50.864;12.766;2023-04-01T06:56:10;95975.97;;;11.64;75.34
14242;BME280;7205;50.864;12.766;2023-04-01T06:58:48;95973.78;;;11.72;75.71
14242;BME280;7205;50.864;12.766;2023-04-01T07:01:22;95984.50;;;11.77;74.80
14242;BME280;7205;50.864;12.766;2023-04-01T07:03:55;95975.69;;;11.83;74.36
14242;BME280;7205;50.864;12.766;2023-04-01T07:06:28;95980.31;;;11.88;73.94
14242;BME280;7205;50.864;12.766;2023-04-01T07:09:02;95984.34;;;11.90;73.03
14242;BME280;7205;50.864;12.766;2023-04-01T07:11:52;95979.44;;;11.94;72.81
14242;BME280;7205;50.864;12.766;2023-04-01T07:14:41;95987.38;;;11.94;72.13
14242;BME280;7205;50.864;12.766;2023-04-01T07:17:12;95990.00;;;11.94;71.90
14242;BME280;7205;50.864;12.766;2023-04-01T07:19:45;95988.16;;;11.94;71.75
14242;BME280;7205;50.864;12.766;2023-04-01T07:22:21;95995.28;;;11.94;71.15
14242;BME280;7205;50.864;12.766;2023-04-01T07:25:12;95993.81;;;11.98;71.66
14242;BME280;7205;50.864;12.766;2023-04-01T07:27:41;95988.88;;;12.01;71.55
14242;BME280;7205;50.864;12.766;2023-04-01T07:30:13;95992.91;;;12.04;71.20
14242;BME280;7205;50.864;12.766;2023-04-01T07:32:42;95985.69;;;12.11;71.92
14242;BME280;7205;50.864;12.766;2023-04-01T07:35:17;95993.09;;;12.20;72.62
14242;BME280;7205;50.864;12.766;2023-04-01T07:37:58;95989.88;;;12.30;72.42
14242;BME280;7205;50.864;12.766;2023-04-01T07:40:34;95996.91;;;12.36;71.89
14242;BME280;7205;50.864;12.766;2023-04-01T07:43:28;96000.03;;;12.44;71.92
14242;BME280;7205;50.864;12.766;2023-04-01T07:46:27;95998.22;;;12.56;72.20
14242;BME280;7205;50.864;12.766;2023-04-01T07:49:01;95996.19;;;12.70;72.35
14242;BME280;7205;50.864;12.766;2023-04-01T07:51:36;95998.25;;;12.80;71.64
14242;BME280;7205;50.864;12.766;2023-04-01T07:54:09;96000.34;;;12.89;71.44
14242;BME280;7205;50.864;12.766;2023-04-01T07:56:44;96001.19;;;13.01;71.64
14242;BME280;7205;50.864;12.766;2023-04-01T07:59:26;96003.03;;;13.12;71.36
14242;BME280;7205;50.864;12.766;2023-04-01T08:02:13;96001.88;;;13.20;70.93
14242;BME280;7205;50.864;12.766;2023-04-01T08:04:54;96010.16;;;13.23;70.22
14242;BME280;7205;50.864;12.766;2023-04-01T08:07:24;96003.84;;;13.24;68.84
14242;BME280;7205;50.864;12.766;2023-04-01T08:10:22;96002.78;;;13.25;68.37
14242;BME280;7205;50.864;12.766;2023-04-01T08:13:16;96000.97;;;13.26;68.22
14242;BME280;7205;50.864;12.766;2023-04-01T08:16:30;95997.84;;;13.29;68.13
14242;BME280;7205;50.864;12.766;2023-04-01T08:19:09;95997.94;;;13.34;67.83
14242;BME280;7205;50.864;12.766;2023-04-01T08:21:47;96005.66;;;13.35;67.38
14242;BME280;7205;50.864;12.766;2023-04-01T08:24:19;96007.38;;;13.41;67.93
14242;BME280;7205;50.864;12.766;2023-04-01T08:26:53;96012.44;;;13.54;68.57
14242;BME280;7205;50.864;12.766;2023-04-01T08:29:26;95994.31;;;13.63;67.70
14242;BME280;7205;50.864;12.766;2023-04-01T08:32:01;96009.28;;;13.69;67.43
14242;BME280;7205;50.864;12.766;2023-04-01T08:34:34;95999.94;;;13.66;66.12
14242;BME280;7205;50.864;12.766;2023-04-01T08:37:06;95995.94;;;13.64;65.79
14242;BME280;7205;50.864;12.766;2023-04-01T08:39:35;96008.28;;;13.58;65.03
14242;BME280;7205;50.864;12.766;2023-04-01T08:42:37;96011.75;;;13.59;64.91
14242;BME280;7205;50.864;12.766;2023-04-01T08:45:28;96014.50;;;13.64;64.71
14242;BME280;7205;50.864;12.766;2023-04-01T08:48:27;96005.47;;;13.65;63.42
14242;BME280;7205;50.864;12.766;2023-04-01T08:54:15;96011.94;;;13.69;62.71
14242;BME280;7205;50.864;12.766;2023-04-01T08:56:57;96000.97;;;13.77;62.40
14242;BME280;7205;50.864;12.766;2023-04-01T08:59:55;95997.25;;;13.90;62.73
14242;BME280;7205;50.864;12.766;2023-04-01T09:03:02;96004.59;;;13.99;61.64
14242;BME280;7205;50.864;12.766;2023-04-01T09:05:54;96000.19;;;14.05;60.98
14242;BME280;7205;50.864;12.766;2023-04-01T09:08:38;96013.91;;;14.13;60.85
14242;BME280;7205;50.864;12.766;2023-04-01T09:11:24;96006.22;;;14.17;59.17
14242;BME280;7205;50.864;12.766;2023-04-01T09:14:17;96013.75;;;14.20;58.98
14242;BME280;7205;50.864;12.766;2023-04-01T09:17:25;96006.13;;;14.23;58.37
14242;BME280;7205;50.864;12.766;2023-04-01T09:20:14;96010.63;;;14.23;58.10
14242;BME280;7205;50.864;12.766;2023-04-01T09:22:51;96017.66;;;14.29;58.31
14242;BME280;7205;50.864;12.766;2023-04-01T09:25:46;96004.47;;;14.34;57.49
14242;BME280;7205;50.864;12.766;2023-04-01T09:28:18;96009.88;;;14.39;57.40
14242;BME280;7205;50.864;12.766;2023-04-01T09:31:14;96009.94;;;14.44;57.48
14242;BME280;7205;50.864;12.766;2023-04-01T09:34:30;96009.72;;;14.45;56.85
14242;BME280;7205;50.864;12.766;2023-04-01T09:37:18;96016.75;;;14.51;57.09
14242;BME280;7205;50.864;12.766;2023-04-01T09:40:02;96010.22;;;14.59;57.40
14242;BME280;7205;50.864;12.766;2023-04-01T09:42:43;96016.91;;;14.61;56.79
14242;BME280;7205;50.864;12.766;2023-04-01T09:45:44;96018.75;;;14.61;56.06
14242;BME280;7205;50.864;12.766;2023-04-01T09:48:27;96017.84;;;14.55;55.65
14242;BME280;7205;50.864;12.766;2023-04-01T09:51:05;96021.72;;;14.48;55.18
14242;BME280;7205;50.864;12.766;2023-04-01T09:53:56;96024.28;;;14.43;55.62
14242;BME280;7205;50.864;12.766;2023-04-01T09:56:58;96032.09;;;14.49;56.20
14242;BME280;7205;50.864;12.766;2023-04-01T10:06:10;96030.59;;;14.70;55.49
14242;BME280;7205;50.864;12.766;2023-04-01T10:12:13;96022.81;;;14.96;55.54
14242;BME280;7205;50.864;12.766;2023-04-01T10:15:06;96027.53;;;15.11;54.78
14242;BME280;7205;50.864;12.766;2023-04-01T10:17:54;96022.94;;;15.23;54.17
14242;BME280;7205;50.864;12.766;2023-04-01T10:20:54;96022.53;;;15.31;53.49
14242;BME280;7205;50.864;12.766;2023-04-01T10:26:38;96034.97;;;15.42;52.85
14242;BME280;7205;50.864;12.766;2023-04-01T10:30:02;96041.63;;;15.45;53.05
14242;BME280;7205;50.864;12.766;2023-04-01T10:33:17;96034.63;;;15.39;52.50
14242;BME280;7205;50.864;12.766;2023-04-01T10:36:09;96031.88;;;15.34;52.91
14242;BME280;7205;50.864;12.766;2023-04-01T10:42:07;96032.28;;;15.26;53.26
14242;BME280;7205;50.864;12.766;2023-04-01T10:45:40;96037.66;;;15.31;53.75
14242;BME280;7205;50.864;12.766;2023-04-01T10:48:19;96038.09;;;15.39;53.05
14242;BME280;7205;50.864;12.766;2023-04-01T10:51:10;96037.75;;;15.36;52.45
14242;BME280;7205;50.864;12.766;2023-04-01T10:53:44;96040.41;;;15.36;52.96
14242;BME280;7205;50.864;12.766;2023-04-01T10:56:32;96041.22;;;15.36;52.86
14242;BME280;7205;50.864;12.766;2023-04-01T11:03:35;96034.75;;;15.32;53.10
14242;BME280;7205;50.864;12.766;2023-04-01T11:13:18;96038.31;;;15.54;52.59
14242;BME280;7205;50.864;12.766;2023-04-01T11:16:05;96038.81;;;15.51;53.03
14242;BME280;7205;50.864;12.766;2023-04-01T11:19:10;96039.31;;;15.48;53.23
14242;BME280;7205;50.864;12.766;2023-04-01T11:22:15;96041.78;;;15.55;53.89
14242;BME280;7205;50.864;12.766;2023-04-01T11:25:11;96040.13;;;15.70;54.37
14242;BME280;7205;50.864;12.766;2023-04-01T11:31:26;96048.13;;;15.92;52.68
14242;BME280;7205;50.864;12.766;2023-04-01T11:34:07;96043.00;;;15.85;52.61
14242;BME280;7205;50.864;12.766;2023-04-01T11:36:46;96054.63;;;15.79;53.14
14242;BME280;7205;50.864;12.766;2023-04-01T11:39:26;96051.81;;;15.69;53.22
14242;BME280;7205;50.864;12.766;2023-04-01T11:42:11;96054.09;;;15.61;53.68
14242;BME280;7205;50.864;12.766;2023-04-01T11:45:11;96059.59;;;15.54;53.88
14242;BME280;7205;50.864;12.766;2023-04-01T11:47:58;96075.72;;;15.48;54.51
14242;BME280;7205;50.864;12.766;2023-04-01T11:50:40;96067.56;;;15.38;54.76
14242;BME280;7205;50.864;12.766;2023-04-01T11:53:29;96062.66;;;15.30;55.43
14242;BME280;7205;50.864;12.766;2023-04-01T11:56:09;96063.47;;;15.30;56.07
14242;BME280;7205;50.864;12.766;2023-04-01T11:58:56;96064.84;;;15.33;56.34
14242;BME280;7205;50.864;12.766;2023-04-01T12:01:36;96067.75;;;15.31;56.00
14242;BME280;7205;50.864;12.766;2023-04-01T12:04:23;96061.84;;;15.29;56.16
14242;BME280;7205;50.864;12.766;2023-04-01T12:07:03;96064.19;;;15.26;56.07
14242;BME280;7205;50.864;12.766;2023-04-01T12:09:40;96059.13;;;15.24;56.52
14242;BME280;7205;50.864;12.766;2023-04-01T12:12:17;96065.25;;;15.25;56.46
14242;BME280;7205;50.864;12.766;2023-04-01T12:14:57;96066.84;;;15.26;56.17
14242;BME280;7205;50.864;12.766;2023-04-01T12:17:33;96067.41;;;15.28;56.54
14242;BME280;7205;50.864;12.766;2023-04-01T12:20:19;96061.59;;;15.31;56.39
14242;BME280;7205;50.864;12.766;2023-04-01T12:22:55;96066.69;;;15.32;56.04
14242;BME280;7205;50.864;12.766;2023-04-01T12:25:46;96075.63;;;15.26;56.13
14242;BME280;7205;50.864;12.766;2023-04-01T12:28:24;96064.28;;;15.14;56.46
14242;BME280;7205;50.864;12.766;2023-04-01T12:31:06;96070.50;;;15.03;56.72
14242;BME280;7205;50.864;12.766;2023-04-01T12:33:48;96079.16;;;14.82;56.39
14242;BME280;7205;50.864;12.766;2023-04-01T12:36:34;96082.91;;;14.53;57.58
14242;BME280;7205;50.864;12.766;2023-04-01T12:39:37;96079.53;;;14.18;58.44
14242;BME280;7205;50.864;12.766;2023-04-01T12:42:15;96081.09;;;13.91;60.07
14242;BME280;7205;50.864;12.766;2023-04-01T12:44:54;96085.75;;;13.72;61.06
14242;BME280;7205;50.864;12.766;2023-04-01T12:47:41;96086.00;;;13.59;62.76
14242;BME280;7205;50.864;12.766;2023-04-01T12:50:34;96086.94;;;13.53;63.86
14242;BME280;7205;50.864;12.766;2023-04-01T12:53:17;96088.88;;;13.57;65.00
14242;BME280;7205;50.864;12.766;2023-04-01T12:55:50;96092.78;;;13.66;66.22
14242;BME280;7205;50.864;12.766;2023-04-01T12:58:42;96096.94;;;13.74;66.41
14242;BME280;7205;50.864;12.766;2023-04-01T13:01:28;96097.97;;;13.84;67.01
14242;BME280;7205;50.864;12.766;2023-04-01T13:04:22;96102.34;;;13.91;67.13
14242;BME280;7205;50.864;12.766;2023-04-01T13:07:16;96101.84;;;13.94;66.95
14242;BME280;7205;50.864;12.766;2023-04-01T13:09:52;96100.16;;;13.88;67.02
14242;BME280;7205;50.864;12.766;2023-04-01T13:12:37;96098.41;;;13.81;67.20
14242;BME280;7205;50.864;12.766;2023-04-01T13:15:28;96103.28;;;13.73;67.63
14242;BME280;7205;50.864;12.766;2023-04-01T13:18:09;96101.44;;;13.73;68.43
14242;BME280;7205;50.864;12.766;2023-04-01T13:20:44;96108.09;;;13.88;70.08
14242;BME280;7205;50.864;12.766;2023-04-01T13:23:24;96112.91;;;14.14;70.74
14242;BME280;7205;50.864;12.766;2023-04-01T13:26:06;96107.72;;;14.47;70.56
14242;BME280;7205;50.864;12.766;2023-04-01T13:28:38;96103.06;;;14.82;70.26
14242;BME280;7205;50.864;12.766;2023-04-01T13:31:13;96106.72;;;15.09;67.69
14242;BME280;7205;50.864;12.766;2023-04-01T13:33:53;96111.69;;;15.34;66.39
14242;BME280;7205;50.864;12.766;2023-04-01T13:36:28;96103.47;;;15.52;65.14
14242;BME280;7205;50.864;12.766;2023-04-01T13:39:17;96105.22;;;15.63;62.44
14242;BME280;7205;50.864;12.766;2023-04-01T13:42:00;96106.91;;;15.69;61.44
14242;BME280;7205;50.864;12.766;2023-04-01T13:44:37;96109.91;;;15.72;60.42
14242;BME280;7205;50.864;12.766;2023-04-01T13:47:16;96108.03;;;15.73;60.71
14242;BME280;7205;50.864;12.766;2023-04-01T13:50:17;96108.75;;;15.68;60.04
14242;BME280;7205;50.864;12.766;2023-04-01T13:53:04;96103.75;;;15.72;60.26
14242;BME280;7205;50.864;12.766;2023-04-01T13:55:55;96105.69;;;15.76;60.25
14242;BME280;7205;50.864;12.766;2023-04-01T14:01:25;96107.19;;;15.89;59.98
14242;BME280;7205;50.864;12.766;2023-04-01T14:07:08;96104.09;;;15.97;59.29
14242;BME280;7205;50.864;12.766;2023-04-01T14:10:06;96108.88;;;15.95;58.74
14242;BME280;7205;50.864;12.766;2023-04-01T14:12:40;96115.00;;;15.95;59.37
14242;BME280;7205;50.864;12.766;2023-04-01T14:15:25;96108.38;;;15.98;59.67
14242;BME280;7205;50.864;12.766;2023-04-01T14:18:09;96113.94;;;15.96;59.12
14242;BME280;7205;50.864;12.766;2023-04-01T14:20:40;96118.44;;;15.96;59.36
14242;BME280;7205;50.864;12.766;2023-04-01T14:23:37;96110.66;;;15.89;58.82
14242;BME280;7205;50.864;12.766;2023-04-01T14:26:19;96112.13;;;15.80;58.83
14242;BME280;7205;50.864;12.766;2023-04-01T14:28:54;96112.38;;;15.79;59.53
14242;BME280;7205;50.864;12.766;2023-04-01T14:31:37;96117.78;;;15.84;60.41
14242;BME280;7205;50.864;12.766;2023-04-01T14:34:23;96122.09;;;15.90;60.90
14242;BME280;7205;50.864;12.766;2023-04-01T14:37:07;96116.78;;;15.90;60.13
14242;BME280;7205;50.864;12.766;2023-04-01T14:40:04;96119.31;;;15.80;59.47
14242;BME280;7205;50.864;12.766;2023-04-01T14:42:55;96124.56;;;15.75;59.84
14242;BME280;7205;50.864;12.766;2023-04-01T14:45:45;96122.16;;;15.73;60.69
14242;BME280;7205;50.864;12.766;2023-04-01T14:48:23;96125.38;;;15.75;60.47
14242;BME280;7205;50.864;12.766;2023-04-01T14:50:54;96125.38;;;15.75;60.55
14242;BME280;7205;50.864;12.766;2023-04-01T14:53:27;96123.50;;;15.76;60.86
14242;BME280;7205;50.864;12.766;2023-04-01T14:55:56;96124.56;;;15.75;60.87
14242;BME280;7205;50.864;12.766;2023-04-01T14:58:24;96127.78;;;15.77;60.96
14242;BME280;7205;50.864;12.766;2023-04-01T15:00:59;96131.00;;;15.79;61.21